sensor_id;sensor_type;location;lat;lon;timestamp;P1;durP1;ratioP1;P2;durP2;ratioP2
18738;SDS011;9498;51.862;19.460;2023-04-07T00:02:16;32.10;;;15.47;;
18738;SDS011;9498;51.862;19.460;2023-04-07T00:04:44;33.43;;;14.70;;
18738;SDS011;9498;51.862;19.460;2023-04-07T00:07:11;31.70;;;14.97;;
18738;SDS011;9498;51.862;19.460;2023-04-07T00:09:38;32.13;;;14.43;;
18738;SDS011;9498;51.862;19.460;2023-04-07T00:12:06;31.63;;;15.47;;
18738;SDS011;9498;51.862;19.460;2023-04-07T00:14:33;31.23;;;14.13;;
18738;SDS011;9498;51.862;19.460;2023-04-07T00:17:00;31.30;;;14.87;;
18738;SDS011;9498;51.862;19.460;2023-04-07T00:19:29;37.50;;;14.77;;
18738;SDS011;9498;51.862;19.460;2023-04-07T00:21:57;29.20;;;13.67;;
18738;SDS011;9498;51.862;19.460;2023-04-07T00:24:24;35.80;;;13.73;;
18738;SDS011;9498;51.862;19.460;2023-04-07T00:26:51;31.90;;;13.70;;
18738;SDS011;9498;51.862;19.460;2023-04-07T00:29:19;31.33;;;14.80;;
18738;SDS011;9498;51.862;19.460;2023-04-07T00:31:46;36.37;;;15.00;;
18738;SDS011;9498;51.862;19.460;2023-04-07T00:34:13;35.73;;;15.47;;
18738;SDS011;9498;51.862;19.460;2023-04-07T00:36:41;34.33;;;14.50;;
18738;SDS011;9498;51.862;19.460;2023-04-07T00:39:10;33.20;;;13.63;;
18738;SDS011;9498;51.862;19.460;2023-04-07T00:41:37;30.97;;;14.47;;
18738;SDS011;9498;51.862;19.460;2023-04-07T00:44:05;31.63;;;14.57;;
18738;SDS011;9498;51.862;19.460;2023-04-07T00:46:32;32.30;;;14.53;;
18738;SDS011;9498;51.862;19.460;2023-04-07T00:48:59;32.73;;;14.47;;
18738;SDS011;9498;51.862;19.460;2023-04-07T00:51:26;33.00;;;13.93;;
18738;SDS011;9498;51.862;19.460;2023-04-07T00:53:55;30.63;;;14.27;;
18738;SDS011;9498;51.862;19.460;2023-04-07T00:56:22;30.97;;;14.60;;
18738;SDS011;9498;51.862;19.460;2023-04-07T00:58:49;36.17;;;14.50;;
18738;SDS011;9498;51.862;19.460;2023-04-07T01:01:18;30.63;;;12.90;;
18738;SDS011;9498;51.862;19.460;2023-04-07T01:03:48;32.20;;;14.50;;
18738;SDS011;9498;51.862;19.460;2023-04-07T01:06:19;29.70;;;12.90;;
18738;SDS011;9498;51.862;19.460;2023-04-07T01:08:48;35.90;;;14.20;;
18738;SDS011;9498;51.862;19.460;2023-04-07T01:11:21;32.60;;;13.80;;
18738;SDS011;9498;51.862;19.460;2023-04-07T01:13:50;32.07;;;14.23;;
18738;SDS011;9498;51.862;19.460;2023-04-07T01:16:18;37.43;;;14.97;;
18738;SDS011;9498;51.862;19.460;2023-04-07T01:18:50;28.77;;;14.13;;
18738;SDS011;9498;51.862;19.460;2023-04-07T01:21:18;34.03;;;14.50;;
18738;SDS011;9498;51.862;19.460;2023-04-07T01:23:51;31.27;;;13.50;;
18738;SDS011;9498;51.862;19.460;2023-04-07T01:26:25;33.07;;;14.53;;
18738;SDS011;9498;51.862;19.460;2023-04-07T01:32:01;39.97;;;15.63;;
18738;SDS011;9498;51.862;19.460;2023-04-07T01:34:30;35.07;;;14.97;;
18738;SDS011;9498;51.862;19.460;2023-04-07T01:36:58;35.37;;;15.70;;
18738;SDS011;9498;51.862;19.460;2023-04-07T01:39:27;43.47;;;16.57;;
18738;SDS011;9498;51.862;19.460;2023-04-07T01:41:54;32.80;;;14.97;;
18738;SDS011;9498;51.862;19.460;2023-04-07T01:44:22;39.80;;;15.33;;
18738;SDS011;9498;51.862;19.460;2023-04-07T01:46:50;43.30;;;16.10;;
18738;SDS011;9498;51.862;19.460;2023-04-07T01:49:19;40.97;;;16.33;;
18738;SDS011;9498;51.862;19.460;2023-04-07T01:51:46;36.67;;;15.63;;
18738;SDS011;9498;51.862;19.460;2023-04-07T01:54:14;34.57;;;15.63;;
18738;SDS011;9498;51.862;19.460;2023-04-07T01:56:42;38.63;;;15.67;;
18738;SDS011;9498;51.862;19.460;2023-04-07T01:59:10;39.00;;;15.90;;
18738;SDS011;9498;51.862;19.460;2023-04-07T02:01:37;37.00;;;16.83;;
18738;SDS011;9498;51.862;19.460;2023-04-07T02:04:05;39.10;;;16.23;;
18738;SDS011;9498;51.862;19.460;2023-04-07T02:06:38;43.30;;;17.20;;
18738;SDS011;9498;51.862;19.460;2023-04-07T02:09:06;41.30;;;18.17;;
18738;SDS011;9498;51.862;19.460;2023-04-07T02:11:36;42.67;;;17.30;;
18738;SDS011;9498;51.862;19.460;2023-04-07T02:14:04;43.23;;;17.10;;
18738;SDS011;9498;51.862;19.460;2023-04-07T02:16:32;42.13;;;17.23;;
18738;SDS011;9498;51.862;19.460;2023-04-07T02:19:00;36.70;;;15.93;;
18738;SDS011;9498;51.862;19.460;2023-04-07T02:21:28;39.00;;;17.00;;
18738;SDS011;9498;51.862;19.460;2023-04-07T02:24:00;39.33;;;15.53;;
18738;SDS011;9498;51.862;19.460;2023-04-07T02:26:31;38.30;;;17.33;;
18738;SDS011;9498;51.862;19.460;2023-04-07T02:28:58;41.60;;;17.17;;
18738;SDS011;9498;51.862;19.460;2023-04-07T02:31:25;40.77;;;17.03;;
18738;SDS011;9498;51.862;19.460;2023-04-07T02:33:53;42.63;;;17.10;;
18738;SDS011;9498;51.862;19.460;2023-04-07T02:36:20;52.45;;;22.08;;
18738;SDS011;9498;51.862;19.460;2023-04-07T02:38:47;45.83;;;18.07;;
18738;SDS011;9498;51.862;19.460;2023-04-07T02:41:16;40.97;;;17.53;;
18738;SDS011;9498;51.862;19.460;2023-04-07T02:43:43;42.70;;;18.07;;
18738;SDS011;9498;51.862;19.460;2023-04-07T02:46:10;183.18;;;29.02;;
18738;SDS011;9498;51.862;19.460;2023-04-07T02:48:37;87.03;;;20.63;;
18738;SDS011;9498;51.862;19.460;2023-04-07T02:51:05;45.20;;;18.50;;
18738;SDS011;9498;51.862;19.460;2023-04-07T02:53:32;44.83;;;17.83;;
18738;SDS011;9498;51.862;19.460;2023-04-07T02:55:59;46.00;;;17.23;;
18738;SDS011;9498;51.862;19.460;2023-04-07T02:58:28;46.00;;;17.73;;
18738;SDS011;9498;51.862;19.460;2023-04-07T03:00:55;119.47;;;24.53;;
18738;SDS011;9498;51.862;19.460;2023-04-07T03:03:22;45.30;;;18.03;;
18738;SDS011;9498;51.862;19.460;2023-04-07T03:05:49;49.80;;;17.10;;
18738;SDS011;9498;51.862;19.460;2023-04-07T03:08:16;127.60;;;19.43;;
18738;SDS011;9498;51.862;19.460;2023-04-07T03:10:43;42.03;;;16.33;;
18738;SDS011;9498;51.862;19.460;2023-04-07T03:13:11;31.70;;;14.13;;
18738;SDS011;9498;51.862;19.460;2023-04-07T03:15:42;37.73;;;16.40;;
18738;SDS011;9498;51.862;19.460;2023-04-07T03:18:09;35.27;;;15.33;;
18738;SDS011;9498;51.862;19.460;2023-04-07T03:20:37;398.25;;;36.72;;
18738;SDS011;9498;51.862;19.460;2023-04-07T03:23:05;110.77;;;19.17;;
18738;SDS011;9498;51.862;19.460;2023-04-07T03:25:33;36.20;;;15.67;;
18738;SDS011;9498;51.862;19.460;2023-04-07T03:28:00;73.37;;;17.33;;
18738;SDS011;9498;51.862;19.460;2023-04-07T03:30:27;91.20;;;16.33;;
18738;SDS011;9498;51.862;19.460;2023-04-07T03:32:56;40.30;;;15.60;;
18738;SDS011;9498;51.862;19.460;2023-04-07T03:35:23;36.53;;;14.87;;
18738;SDS011;9498;51.862;19.460;2023-04-07T03:37:51;41.57;;;16.97;;
18738;SDS011;9498;51.862;19.460;2023-04-07T03:40:18;66.93;;;18.27;;
18738;SDS011;9498;51.862;19.460;2023-04-07T03:42:45;39.13;;;15.60;;
18738;SDS011;9498;51.862;19.460;2023-04-07T03:45:13;41.87;;;15.50;;
18738;SDS011;9498;51.862;19.460;2023-04-07T03:47:40;44.37;;;16.27;;
18738;SDS011;9498;51.862;19.460;2023-04-07T03:50:09;47.23;;;17.40;;
18738;SDS011;9498;51.862;19.460;2023-04-07T03:52:36;74.93;;;19.97;;
18738;SDS011;9498;51.862;19.460;2023-04-07T03:55:04;56.13;;;18.87;;
18738;SDS011;9498;51.862;19.460;2023-04-07T03:57:31;262.90;;;29.47;;
18738;SDS011;9498;51.862;19.460;2023-04-07T03:59:58;49.33;;;17.10;;
18738;SDS011;9498;51.862;19.460;2023-04-07T04:02:26;59.13;;;20.90;;
18738;SDS011;9498;51.862;19.460;2023-04-07T04:04:53;154.33;;;24.87;;
18738;SDS011;9498;51.862;19.460;2023-04-07T04:07:21;51.30;;;19.50;;
18738;SDS011;9498;51.862;19.460;2023-04-07T04:09:50;49.53;;;18.07;;
18738;SDS011;9498;51.862;19.460;2023-04-07T04:12:17;49.27;;;16.67;;
18738;SDS011;9498;51.862;19.460;2023-04-07T04:14:44;52.33;;;18.60;;
18738;SDS011;9498;51.862;19.460;2023-04-07T04:17:11;70.27;;;19.17;;
18738;SDS011;9498;51.862;19.460;2023-04-07T04:19:39;62.80;;;17.50;;
18738;SDS011;9498;51.862;19.460;2023-04-07T04:22:06;51.07;;;18.70;;
18738;SDS011;9498;51.862;19.460;2023-04-07T04:24:35;57.20;;;21.52;;
18738;SDS011;9498;51.862;19.460;2023-04-07T04:27:02;51.63;;;18.77;;
18738;SDS011;9498;51.862;19.460;2023-04-07T04:29:29;52.43;;;18.70;;
18738;SDS011;9498;51.862;19.460;2023-04-07T04:31:57;50.40;;;18.53;;
18738;SDS011;9498;51.862;19.460;2023-04-07T04:34:24;54.17;;;19.10;;
18738;SDS011;9498;51.862;19.460;2023-04-07T04:36:51;49.07;;;18.93;;
18738;SDS011;9498;51.862;19.460;2023-04-07T04:39:18;53.53;;;17.27;;
18738;SDS011;9498;51.862;19.460;2023-04-07T04:41:47;64.70;;;18.53;;
18738;SDS011;9498;51.862;19.460;2023-04-07T04:44:15;53.37;;;17.20;;
18738;SDS011;9498;51.862;19.460;2023-04-07T04:46:42;122.53;;;25.00;;
18738;SDS011;9498;51.862;19.460;2023-04-07T04:49:09;50.70;;;18.63;;
18738;SDS011;9498;51.862;19.460;2023-04-07T04:51:36;59.67;;;16.83;;
18738;SDS011;9498;51.862;19.460;2023-04-07T04:54:03;48.20;;;18.13;;
18738;SDS011;9498;51.862;19.460;2023-04-07T04:56:31;46.47;;;17.70;;
18738;SDS011;9498;51.862;19.460;2023-04-07T04:58:59;49.63;;;17.17;;
18738;SDS011;9498;51.862;19.460;2023-04-07T05:01:26;43.97;;;17.20;;
18738;SDS011;9498;51.862;19.460;2023-04-07T05:03:54;44.10;;;16.67;;
18738;SDS011;9498;51.862;19.460;2023-04-07T05:06:21;45.70;;;17.63;;
18738;SDS011;9498;51.862;19.460;2023-04-07T05:08:49;45.40;;;17.30;;
18738;SDS011;9498;51.862;19.460;2023-04-07T05:11:16;40.40;;;15.90;;
18738;SDS011;9498;51.862;19.460;2023-04-07T05:13:43;43.37;;;16.87;;
18738;SDS011;9498;51.862;19.460;2023-04-07T05:16:12;47.83;;;16.97;;
18738;SDS011;9498;51.862;19.460;2023-04-07T05:18:39;47.17;;;16.00;;
18738;SDS011;9498;51.862;19.460;2023-04-07T05:21:06;45.97;;;16.50;;
18738;SDS011;9498;51.862;19.460;2023-04-07T05:23:34;43.73;;;16.47;;
18738;SDS011;9498;51.862;19.460;2023-04-07T05:26:01;45.07;;;16.90;;
18738;SDS011;9498;51.862;19.460;2023-04-07T05:28:28;41.53;;;15.03;;
18738;SDS011;9498;51.862;19.460;2023-04-07T05:30:56;46.07;;;16.50;;
18738;SDS011;9498;51.862;19.460;2023-04-07T05:33:24;50.07;;;18.17;;
18738;SDS011;9498;51.862;19.460;2023-04-07T05:35:51;47.83;;;17.03;;
18738;SDS011;9498;51.862;19.460;2023-04-07T05:38:19;49.13;;;16.20;;
18738;SDS011;9498;51.862;19.460;2023-04-07T05:40:46;46.23;;;16.77;;
18738;SDS011;9498;51.862;19.460;2023-04-07T05:43:13;52.27;;;18.10;;
18738;SDS011;9498;51.862;19.460;2023-04-07T05:45:40;47.37;;;16.40;;
18738;SDS011;9498;51.862;19.460;2023-04-07T05:48:07;48.57;;;16.73;;
18738;SDS011;9498;51.862;19.460;2023-04-07T05:50:36;50.77;;;17.37;;
18738;SDS011;9498;51.862;19.460;2023-04-07T05:53:04;48.00;;;18.43;;
18738;SDS011;9498;51.862;19.460;2023-04-07T05:55:31;40.97;;;16.83;;
18738;SDS011;9498;51.862;19.460;2023-04-07T05:57:58;49.10;;;17.53;;
18738;SDS011;9498;51.862;19.460;2023-04-07T06:00:25;40.90;;;16.50;;
18738;SDS011;9498;51.862;19.460;2023-04-07T06:02:52;41.97;;;17.17;;
18738;SDS011;9498;51.862;19.460;2023-04-07T06:05:20;43.20;;;15.40;;
18738;SDS011;9498;51.862;19.460;2023-04-07T06:07:48;48.33;;;16.77;;
18738;SDS011;9498;51.862;19.460;2023-04-07T06:10:15;43.47;;;15.43;;
18738;SDS011;9498;51.862;19.460;2023-04-07T06:12:43;38.23;;;15.43;;
18738;SDS011;9498;51.862;19.460;2023-04-07T06:15:10;42.00;;;16.10;;
18738;SDS011;9498;51.862;19.460;2023-04-07T06:17:37;42.87;;;15.70;;
18738;SDS011;9498;51.862;19.460;2023-04-07T06:20:05;45.70;;;16.40;;
18738;SDS011;9498;51.862;19.460;2023-04-07T06:22:32;44.60;;;17.63;;
18738;SDS011;9498;51.862;19.460;2023-04-07T06:25:01;48.80;;;17.43;;
18738;SDS011;9498;51.862;19.460;2023-04-07T06:27:29;47.00;;;17.50;;
18738;SDS011;9498;51.862;19.460;2023-04-07T06:29:57;54.97;;;18.37;;
18738;SDS011;9498;51.862;19.460;2023-04-07T06:32:24;50.70;;;18.27;;
18738;SDS011;9498;51.862;19.460;2023-04-07T06:34:52;47.97;;;17.60;;
18738;SDS011;9498;51.862;19.460;2023-04-07T06:37:20;61.07;;;18.33;;
18738;SDS011;9498;51.862;19.460;2023-04-07T06:39:48;47.73;;;18.77;;
18738;SDS011;9498;51.862;19.460;2023-04-07T06:42:17;58.80;;;18.03;;
18738;SDS011;9498;51.862;19.460;2023-04-07T06:44:44;58.70;;;18.73;;
18738;SDS011;9498;51.862;19.460;2023-04-07T06:47:11;54.80;;;19.87;;
18738;SDS011;9498;51.862;19.460;2023-04-07T06:49:39;60.97;;;20.93;;
18738;SDS011;9498;51.862;19.460;2023-04-07T06:52:06;61.50;;;20.13;;
18738;SDS011;9498;51.862;19.460;2023-04-07T06:54:33;67.03;;;19.67;;
18738;SDS011;9498;51.862;19.460;2023-04-07T06:57:00;59.87;;;19.63;;
18738;SDS011;9498;51.862;19.460;2023-04-07T06:59:29;65.10;;;19.70;;
18738;SDS011;9498;51.862;19.460;2023-04-07T07:01:56;63.20;;;20.90;;
18738;SDS011;9498;51.862;19.460;2023-04-07T07:04:23;55.30;;;20.00;;
18738;SDS011;9498;51.862;19.460;2023-04-07T07:06:50;77.77;;;20.50;;
18738;SDS011;9498;51.862;19.460;2023-04-07T07:09:19;75.70;;;20.77;;
18738;SDS011;9498;51.862;19.460;2023-04-07T07:11:47;75.37;;;20.97;;
18738;SDS011;9498;51.862;19.460;2023-04-07T07:14:14;64.33;;;20.43;;
18738;SDS011;9498;51.862;19.460;2023-04-07T07:16:42;66.37;;;20.90;;
18738;SDS011;9498;51.862;19.460;2023-04-07T07:19:10;92.57;;;21.73;;
18738;SDS011;9498;51.862;19.460;2023-04-07T07:21:38;79.87;;;22.40;;
18738;SDS011;9498;51.862;19.460;2023-04-07T07:24:05;101.33;;;21.20;;
18738;SDS011;9498;51.862;19.460;2023-04-07T07:26:33;90.03;;;21.50;;
18738;SDS011;9498;51.862;19.460;2023-04-07T07:29:00;71.97;;;21.57;;
18738;SDS011;9498;51.862;19.460;2023-04-07T07:31:27;67.43;;;21.47;;
18738;SDS011;9498;51.862;19.460;2023-04-07T07:33:56;83.33;;;21.87;;
18738;SDS011;9498;51.862;19.460;2023-04-07T07:36:24;92.53;;;21.80;;
18738;SDS011;9498;51.862;19.460;2023-04-07T07:38:51;84.50;;;23.00;;
18738;SDS011;9498;51.862;19.460;2023-04-07T07:41:18;100.07;;;24.00;;
18738;SDS011;9498;51.862;19.460;2023-04-07T07:43:45;97.00;;;24.17;;
18738;SDS011;9498;51.862;19.460;2023-04-07T07:46:13;92.97;;;23.37;;
18738;SDS011;9498;51.862;19.460;2023-04-07T07:48:40;93.20;;;23.67;;
18738;SDS011;9498;51.862;19.460;2023-04-07T07:51:08;108.17;;;25.73;;
18738;SDS011;9498;51.862;19.460;2023-04-07T07:53:36;89.73;;;26.17;;
18738;SDS011;9498;51.862;19.460;2023-04-07T07:56:03;73.53;;;24.00;;
18738;SDS011;9498;51.862;19.460;2023-04-07T07:58:30;86.63;;;26.97;;
18738;SDS011;9498;51.862;19.460;2023-04-07T08:00:57;98.57;;;25.87;;
18738;SDS011;9498;51.862;19.460;2023-04-07T08:03:24;83.60;;;26.73;;
18738;SDS011;9498;51.862;19.460;2023-04-07T08:05:52;81.70;;;26.60;;
18738;SDS011;9498;51.862;19.460;2023-04-07T08:08:20;91.87;;;26.17;;
18738;SDS011;9498;51.862;19.460;2023-04-07T08:10:48;84.13;;;27.53;;
18738;SDS011;9498;51.862;19.460;2023-04-07T08:13:15;82.10;;;25.00;;
18738;SDS011;9498;51.862;19.460;2023-04-07T08:15:42;88.40;;;27.20;;
18738;SDS011;9498;51.862;19.460;2023-04-07T08:18:09;82.83;;;25.63;;
18738;SDS011;9498;51.862;19.460;2023-04-07T08:20:36;76.57;;;25.23;;
18738;SDS011;9498;51.862;19.460;2023-04-07T08:23:04;68.47;;;23.73;;
18738;SDS011;9498;51.862;19.460;2023-04-07T08:25:33;76.10;;;25.00;;
18738;SDS011;9498;51.862;19.460;2023-04-07T08:28:00;64.63;;;21.60;;
18738;SDS011;9498;51.862;19.460;2023-04-07T08:30:28;66.30;;;23.13;;
18738;SDS011;9498;51.862;19.460;2023-04-07T08:32:55;68.90;;;23.83;;
18738;SDS011;9498;51.862;19.460;2023-04-07T08:35:24;64.17;;;22.47;;
18738;SDS011;9498;51.862;19.460;2023-04-07T08:37:53;60.50;;;22.83;;
18738;SDS011;9498;51.862;19.460;2023-04-07T08:40:21;65.40;;;23.30;;
18738;SDS011;9498;51.862;19.460;2023-04-07T08:42:50;72.93;;;23.17;;
18738;SDS011;9498;51.862;19.460;2023-04-07T08:45:18;70.20;;;23.47;;
18738;SDS011;9498;51.862;19.460;2023-04-07T08:47:46;71.87;;;24.40;;
18738;SDS011;9498;51.862;19.460;2023-04-07T08:50:15;66.07;;;23.57;;
18738;SDS011;9498;51.862;19.460;2023-04-07T08:52:44;69.63;;;24.57;;
18738;SDS011;9498;51.862;19.460;2023-04-07T08:55:11;67.03;;;23.73;;
18738;SDS011;9498;51.862;19.460;2023-04-07T08:57:39;71.87;;;25.20;;
18738;SDS011;9498;51.862;19.460;2023-04-07T09:00:09;64.97;;;23.03;;
18738;SDS011;9498;51.862;19.460;2023-04-07T09:02:36;74.23;;;25.33;;
18738;SDS011;9498;51.862;19.460;2023-04-07T09:05:05;67.47;;;24.50;;
18738;SDS011;9498;51.862;19.460;2023-04-07T09:07:33;70.97;;;25.30;;
18738;SDS011;9498;51.862;19.460;2023-04-07T09:10:01;65.60;;;24.17;;
18738;SDS011;9498;51.862;19.460;2023-04-07T09:12:28;66.30;;;23.13;;
18738;SDS011;9498;51.862;19.460;2023-04-07T09:14:56;70.23;;;24.57;;
18738;SDS011;9498;51.862;19.460;2023-04-07T09:17:25;69.90;;;23.27;;
18738;SDS011;9498;51.862;19.460;2023-04-07T09:19:54;68.00;;;25.20;;
18738;SDS011;9498;51.862;19.460;2023-04-07T09:22:34;64.13;;;23.70;;
18738;SDS011;9498;51.862;19.460;2023-04-07T09:25:08;59.60;;;21.77;;
18738;SDS011;9498;51.862;19.460;2023-04-07T09:27:36;54.80;;;21.37;;
18738;SDS011;9498;51.862;19.460;2023-04-07T09:30:09;59.93;;;22.67;;
18738;SDS011;9498;51.862;19.460;2023-04-07T09:32:40;55.30;;;21.87;;
18738;SDS011;9498;51.862;19.460;2023-04-07T09:35:07;58.73;;;21.83;;
18738;SDS011;9498;51.862;19.460;2023-04-07T09:37:35;63.73;;;22.53;;
18738;SDS011;9498;51.862;19.460;2023-04-07T09:40:02;61.73;;;23.27;;
18738;SDS011;9498;51.862;19.460;2023-04-07T09:42:30;53.23;;;20.77;;
18738;SDS011;9498;51.862;19.460;2023-04-07T09:45:00;66.27;;;23.83;;
18738;SDS011;9498;51.862;19.460;2023-04-07T09:47:27;73.73;;;24.77;;
18738;SDS011;9498;51.862;19.460;2023-04-07T09:49:56;70.13;;;25.87;;
18738;SDS011;9498;51.862;19.460;2023-04-07T09:55:12;74.40;;;27.13;;
18738;SDS011;9498;51.862;19.460;2023-04-07T09:57:40;71.67;;;27.40;;
18738;SDS011;9498;51.862;19.460;2023-04-07T10:00:08;72.13;;;26.27;;
18738;SDS011;9498;51.862;19.460;2023-04-07T10:02:36;71.50;;;27.17;;
18738;SDS011;9498;51.862;19.460;2023-04-07T10:05:05;78.40;;;24.93;;
18738;SDS011;9498;51.862;19.460;2023-04-07T10:07:32;72.10;;;24.63;;
18738;SDS011;9498;51.862;19.460;2023-04-07T10:10:01;67.63;;;26.40;;
18738;SDS011;9498;51.862;19.460;2023-04-07T10:12:28;68.50;;;25.47;;
18738;SDS011;9498;51.862;19.460;2023-04-07T10:14:57;76.70;;;25.67;;
18738;SDS011;9498;51.862;19.460;2023-04-07T10:17:26;79.90;;;27.00;;
18738;SDS011;9498;51.862;19.460;2023-04-07T10:19:54;78.00;;;28.03;;
18738;SDS011;9498;51.862;19.460;2023-04-07T10:22:25;76.33;;;26.83;;
18738;SDS011;9498;51.862;19.460;2023-04-07T10:24:54;83.57;;;28.37;;
18738;SDS011;9498;51.862;19.460;2023-04-07T10:27:26;73.97;;;27.67;;
18738;SDS011;9498;51.862;19.460;2023-04-07T10:29:55;77.80;;;26.87;;
18738;SDS011;9498;51.862;19.460;2023-04-07T10:32:22;80.33;;;28.63;;
18738;SDS011;9498;51.862;19.460;2023-04-07T10:34:59;81.17;;;27.57;;
18738;SDS011;9498;51.862;19.460;2023-04-07T10:37:27;75.10;;;27.60;;
18738;SDS011;9498;51.862;19.460;2023-04-07T10:42:43;81.43;;;28.87;;
18738;SDS011;9498;51.862;19.460;2023-04-07T10:45:11;80.07;;;29.03;;
18738;SDS011;9498;51.862;19.460;2023-04-07T10:48:08;83.43;;;27.60;;
18738;SDS011;9498;51.862;19.460;2023-04-07T10:50:35;72.47;;;26.97;;
18738;SDS011;9498;51.862;19.460;2023-04-07T10:53:07;82.80;;;29.17;;
18738;SDS011;9498;51.862;19.460;2023-04-07T10:55:35;84.90;;;29.70;;
18738;SDS011;9498;51.862;19.460;2023-04-07T10:58:12;91.17;;;30.37;;
18738;SDS011;9498;51.862;19.460;2023-04-07T11:00:39;84.23;;;29.37;;
18738;SDS011;9498;51.862;19.460;2023-04-07T11:03:08;92.13;;;30.23;;
18738;SDS011;9498;51.862;19.460;2023-04-07T11:05:37;94.63;;;32.90;;
18738;SDS011;9498;51.862;19.460;2023-04-07T11:08:04;103.73;;;36.23;;
18738;SDS011;9498;51.862;19.460;2023-04-07T11:10:33;109.90;;;34.13;;
18738;SDS011;9498;51.862;19.460;2023-04-07T11:13:02;95.67;;;31.30;;
18738;SDS011;9498;51.862;19.460;2023-04-07T11:15:30;101.87;;;33.60;;
18738;SDS011;9498;51.862;19.460;2023-04-07T11:18:16;109.40;;;37.83;;
18738;SDS011;9498;51.862;19.460;2023-04-07T11:20:45;102.47;;;34.47;;
18738;SDS011;9498;51.862;19.460;2023-04-07T11:23:12;102.50;;;34.23;;
18738;SDS011;9498;51.862;19.460;2023-04-07T11:25:42;102.33;;;33.03;;
18738;SDS011;9498;51.862;19.460;2023-04-07T11:28:10;101.87;;;35.43;;
18738;SDS011;9498;51.862;19.460;2023-04-07T11:30:38;108.53;;;35.67;;
18738;SDS011;9498;51.862;19.460;2023-04-07T11:33:06;112.03;;;36.70;;
18738;SDS011;9498;51.862;19.460;2023-04-07T11:35:34;100.93;;;35.20;;
18738;SDS011;9498;51.862;19.460;2023-04-07T11:38:01;113.67;;;34.50;;
18738;SDS011;9498;51.862;19.460;2023-04-07T11:40:32;99.23;;;34.40;;
18738;SDS011;9498;51.862;19.460;2023-04-07T11:43:01;113.45;;;39.50;;
18738;SDS011;9498;51.862;19.460;2023-04-07T11:45:28;114.30;;;35.77;;
18738;SDS011;9498;51.862;19.460;2023-04-07T11:47:55;112.07;;;36.40;;
18738;SDS011;9498;51.862;19.460;2023-04-07T11:50:38;108.73;;;35.10;;
18738;SDS011;9498;51.862;19.460;2023-04-07T11:53:06;112.33;;;37.73;;
18738;SDS011;9498;51.862;19.460;2023-04-07T11:55:33;116.50;;;36.63;;
18738;SDS011;9498;51.862;19.460;2023-04-07T11:58:06;130.30;;;39.73;;
18738;SDS011;9498;51.862;19.460;2023-04-07T12:00:34;132.97;;;38.77;;
18738;SDS011;9498;51.862;19.460;2023-04-07T12:03:09;136.30;;;39.10;;
18738;SDS011;9498;51.862;19.460;2023-04-07T12:05:41;132.77;;;41.30;;
18738;SDS011;9498;51.862;19.460;2023-04-07T12:08:09;122.23;;;39.00;;
18738;SDS011;9498;51.862;19.460;2023-04-07T12:10:37;125.27;;;40.10;;
18738;SDS011;9498;51.862;19.460;2023-04-07T12:13:07;163.73;;;42.87;;
18738;SDS011;9498;51.862;19.460;2023-04-07T12:15:34;144.50;;;40.90;;
18738;SDS011;9498;51.862;19.460;2023-04-07T12:18:02;120.30;;;38.97;;
18738;SDS011;9498;51.862;19.460;2023-04-07T12:20:31;135.17;;;39.70;;
18738;SDS011;9498;51.862;19.460;2023-04-07T12:22:58;135.93;;;42.37;;
18738;SDS011;9498;51.862;19.460;2023-04-07T12:25:25;166.10;;;52.08;;
18738;SDS011;9498;51.862;19.460;2023-04-07T12:27:53;147.67;;;44.23;;
18738;SDS011;9498;51.862;19.460;2023-04-07T12:30:21;151.63;;;43.57;;
18738;SDS011;9498;51.862;19.460;2023-04-07T12:32:48;145.07;;;42.87;;
18738;SDS011;9498;51.862;19.460;2023-04-07T12:35:16;136.93;;;41.60;;
18738;SDS011;9498;51.862;19.460;2023-04-07T12:37:43;128.17;;;40.10;;
18738;SDS011;9498;51.862;19.460;2023-04-07T12:40:11;137.30;;;42.43;;
18738;SDS011;9498;51.862;19.460;2023-04-07T12:42:40;133.20;;;41.43;;
18738;SDS011;9498;51.862;19.460;2023-04-07T12:45:07;121.83;;;40.90;;
18738;SDS011;9498;51.862;19.460;2023-04-07T12:47:36;121.13;;;39.33;;
18738;SDS011;9498;51.862;19.460;2023-04-07T12:50:03;116.40;;;38.93;;
18738;SDS011;9498;51.862;19.460;2023-04-07T12:52:30;139.45;;;45.53;;
18738;SDS011;9498;51.862;19.460;2023-04-07T12:54:58;122.27;;;40.30;;
18738;SDS011;9498;51.862;19.460;2023-04-07T12:57:25;144.38;;;50.38;;
18738;SDS011;9498;51.862;19.460;2023-04-07T12:59:52;125.53;;;43.93;;
18738;SDS011;9498;51.862;19.460;2023-04-07T13:02:20;114.57;;;39.43;;
18738;SDS011;9498;51.862;19.460;2023-04-07T13:04:49;104.27;;;37.40;;
18738;SDS011;9498;51.862;19.460;2023-04-07T13:07:17;103.83;;;38.00;;
18738;SDS011;9498;51.862;19.460;2023-04-07T13:09:46;100.40;;;36.73;;
18738;SDS011;9498;51.862;19.460;2023-04-07T13:12:13;113.27;;;39.57;;
18738;SDS011;9498;51.862;19.460;2023-04-07T13:14:40;125.32;;;43.47;;
18738;SDS011;9498;51.862;19.460;2023-04-07T13:17:08;123.77;;;41.20;;
18738;SDS011;9498;51.862;19.460;2023-04-07T13:19:35;135.43;;;42.87;;
18738;SDS011;9498;51.862;19.460;2023-04-07T13:22:04;121.53;;;41.80;;
18738;SDS011;9498;51.862;19.460;2023-04-07T13:24:32;112.60;;;40.47;;
18738;SDS011;9498;51.862;19.460;2023-04-07T13:26:59;113.10;;;41.17;;
18738;SDS011;9498;51.862;19.460;2023-04-07T13:29:26;121.80;;;43.83;;
18738;SDS011;9498;51.862;19.460;2023-04-07T13:32:03;130.03;;;45.47;;
18738;SDS011;9498;51.862;19.460;2023-04-07T13:34:30;130.93;;;47.33;;
18738;SDS011;9498;51.862;19.460;2023-04-07T13:36:59;134.97;;;47.63;;
18738;SDS011;9498;51.862;19.460;2023-04-07T13:39:28;128.67;;;46.00;;
18738;SDS011;9498;51.862;19.460;2023-04-07T13:41:56;148.73;;;48.93;;
18738;SDS011;9498;51.862;19.460;2023-04-07T13:44:23;139.17;;;46.43;;
18738;SDS011;9498;51.862;19.460;2023-04-07T13:46:51;150.43;;;50.27;;
18738;SDS011;9498;51.862;19.460;2023-04-07T13:49:18;126.03;;;43.73;;
18738;SDS011;9498;51.862;19.460;2023-04-07T13:51:46;114.57;;;43.23;;
18738;SDS011;9498;51.862;19.460;2023-04-07T13:54:14;126.60;;;44.90;;
18738;SDS011;9498;51.862;19.460;2023-04-07T13:56:43;127.03;;;45.23;;
18738;SDS011;9498;51.862;19.460;2023-04-07T13:59:13;137.43;;;46.00;;
18738;SDS011;9498;51.862;19.460;2023-04-07T14:01:40;126.67;;;45.43;;
18738;SDS011;9498;51.862;19.460;2023-04-07T14:04:07;163.50;;;45.63;;
18738;SDS011;9498;51.862;19.460;2023-04-07T14:06:34;152.82;;;55.33;;
18738;SDS011;9498;51.862;19.460;2023-04-07T14:09:02;171.27;;;49.80;;
18738;SDS011;9498;51.862;19.460;2023-04-07T14:11:30;137.00;;;47.20;;
18738;SDS011;9498;51.862;19.460;2023-04-07T14:14:00;129.67;;;45.60;;
18738;SDS011;9498;51.862;19.460;2023-04-07T14:16:27;164.35;;;58.42;;
18738;SDS011;9498;51.862;19.460;2023-04-07T14:18:54;142.13;;;47.80;;
18738;SDS011;9498;51.862;19.460;2023-04-07T14:21:22;119.93;;;44.63;;
18738;SDS011;9498;51.862;19.460;2023-04-07T14:23:51;128.50;;;45.67;;
18738;SDS011;9498;51.862;19.460;2023-04-07T14:26:18;129.17;;;45.13;;
18738;SDS011;9498;51.862;19.460;2023-04-07T14:28:46;126.80;;;43.70;;
18738;SDS011;9498;51.862;19.460;2023-04-07T14:31:14;179.13;;;45.17;;
18738;SDS011;9498;51.862;19.460;2023-04-07T14:33:42;126.43;;;43.70;;